sensor_id;sensor_type;location;lat;lon;timestamp;pressure;altitude;pressure_sealevel;temperature;humidity
3748;BME280;1889;50.058;8.688;2024-01-30T00:02:29;101627.64;;;7.75;60.83
3748;BME280;1889;50.058;8.688;2024-01-30T00:04:58;101630.33;;;7.78;60.77
3748;BME280;1889;50.058;8.688;2024-01-30T00:07:28;101628.30;;;7.88;60.61
3748;BME280;1889;50.058;8.688;2024-01-30T00:10:09;101628.72;;;7.86;60.52
3748;BME280;1889;50.058;8.688;2024-01-30T00:12:46;101627.80;;;7.84;60.59
3748;BME280;1889;50.058;8.688;2024-01-30T00:15:12;101626.82;;;7.79;60.54
3748;BME280;1889;50.058;8.688;2024-01-30T00:17:42;101626.00;;;7.82;60.59
3748;BME280;1889;50.058;8.688;2024-01-30T00:20:11;101624.95;;;7.72;60.53
3748;BME280;1889;50.058;8.688;2024-01-30T00:22:41;101628.95;;;7.52;60.79
3748;BME280;1889;50.058;8.688;2024-01-30T00:25:12;101623.85;;;7.36;61.18
3748;BME280;1889;50.058;8.688;2024-01-30T00:27:42;101629.27;;;7.47;61.23
3748;BME280;1889;50.058;8.688;2024-01-30T00:30:17;101627.92;;;7.44;61.37
3748;BME280;1889;50.058;8.688;2024-01-30T00:32:50;101631.29;;;7.60;61.27
3748;BME280;1889;50.058;8.688;2024-01-30T00:35:21;101636.17;;;7.65;61.05
3748;BME280;1889;50.058;8.688;2024-01-30T00:37:51;101624.45;;;7.68;61.01
3748;BME280;1889;50.058;8.688;2024-01-30T00:40:20;101628.48;;;7.74;60.84
3748;BME280;1889;50.058;8.688;2024-01-30T00:42:52;101622.00;;;7.77;60.73
3748;BME280;1889;50.058;8.688;2024-01-30T00:45:22;101622.78;;;7.73;60.64
3748;BME280;1889;50.058;8.688;2024-01-30T00:47:52;101620.69;;;7.77;60.58
3748;BME280;1889;50.058;8.688;2024-01-30T00:50:21;101624.76;;;7.85;60.49
3748;BME280;1889;50.058;8.688;2024-01-30T00:52:51;101616.89;;;7.85;60.41
3748;BME280;1889;50.058;8.688;2024-01-30T00:55:20;101626.33;;;7.75;60.34
3748;BME280;1889;50.058;8.688;2024-01-30T00:57:50;101626.47;;;7.36;60.86
3748;BME280;1889;50.058;8.688;2024-01-30T01:00:19;101626.69;;;7.48;60.86
3748;BME280;1889;50.058;8.688;2024-01-30T01:02:49;101628.31;;;7.65;60.04
3748;BME280;1889;50.058;8.688;2024-01-30T01:05:18;101629.52;;;7.59;60.33
3748;BME280;1889;50.058;8.688;2024-01-30T01:07:47;101633.84;;;7.57;60.52
3748;BME280;1889;50.058;8.688;2024-01-30T01:10:17;101631.96;;;7.50;60.73
3748;BME280;1889;50.058;8.688;2024-01-30T01:12:47;101639.33;;;7.46;60.79
3748;BME280;1889;50.058;8.688;2024-01-30T01:15:17;101643.87;;;7.34;60.99
3748;BME280;1889;50.058;8.688;2024-01-30T01:17:47;101643.95;;;7.39;61.06
3748;BME280;1889;50.058;8.688;2024-01-30T01:20:17;101643.17;;;7.43;61.00
3748;BME280;1889;50.058;8.688;2024-01-30T01:22:46;101640.74;;;7.52;60.81
3748;BME280;1889;50.058;8.688;2024-01-30T01:25:15;101642.09;;;7.53;60.74
3748;BME280;1889;50.058;8.688;2024-01-30T01:27:45;101642.44;;;7.50;60.67
3748;BME280;1889;50.058;8.688;2024-01-30T01:30:16;101637.66;;;7.51;60.37
3748;BME280;1889;50.058;8.688;2024-01-30T01:32:51;101637.63;;;7.49;60.38
3748;BME280;1889;50.058;8.688;2024-01-30T01:35:27;101632.31;;;7.46;60.41
3748;BME280;1889;50.058;8.688;2024-01-30T01:37:56;101635.21;;;7.37;60.62
3748;BME280;1889;50.058;8.688;2024-01-30T01:40:28;101631.85;;;7.44;60.52
3748;BME280;1889;50.058;8.688;2024-01-30T01:42:57;101635.32;;;7.43;60.51
3748;BME280;1889;50.058;8.688;2024-01-30T01:45:26;101635.17;;;7.35;60.60
3748;BME280;1889;50.058;8.688;2024-01-30T01:47:55;101631.74;;;7.38;60.68
3748;BME280;1889;50.058;8.688;2024-01-30T01:50:25;101627.39;;;7.40;60.48
3748;BME280;1889;50.058;8.688;2024-01-30T01:52:55;101625.34;;;7.47;60.43
3748;BME280;1889;50.058;8.688;2024-01-30T01:55:25;101620.14;;;7.48;60.44
3748;BME280;1889;50.058;8.688;2024-01-30T01:57:56;101621.16;;;7.56;60.28
3748;BME280;1889;50.058;8.688;2024-01-30T02:00:26;101611.11;;;7.56;60.16
3748;BME280;1889;50.058;8.688;2024-01-30T02:02:56;101617.63;;;7.54;60.19
3748;BME280;1889;50.058;8.688;2024-01-30T02:05:29;101610.72;;;7.58;60.01
3748;BME280;1889;50.058;8.688;2024-01-30T02:08:01;101613.34;;;7.58;59.96
3748;BME280;1889;50.058;8.688;2024-01-30T02:10:31;101611.05;;;7.51;59.83
3748;BME280;1889;50.058;8.688;2024-01-30T02:13:00;101613.06;;;7.43;59.82
3748;BME280;1889;50.058;8.688;2024-01-30T02:15:30;101610.72;;;7.35;59.93
3748;BME280;1889;50.058;8.688;2024-01-30T02:17:59;101614.22;;;7.35;59.68
3748;BME280;1889;50.058;8.688;2024-01-30T02:20:30;101613.27;;;7.32;59.81
3748;BME280;1889;50.058;8.688;2024-01-30T02:23:01;101606.30;;;7.32;59.90
3748;BME280;1889;50.058;8.688;2024-01-30T02:25:35;101613.69;;;7.31;59.85
3748;BME280;1889;50.058;8.688;2024-01-30T02:28:05;101610.19;;;7.31;59.98
3748;BME280;1889;50.058;8.688;2024-01-30T02:30:34;101613.34;;;7.35;60.04
3748;BME280;1889;50.058;8.688;2024-01-30T02:33:04;101606.41;;;7.37;60.00
3748;BME280;1889;50.058;8.688;2024-01-30T02:35:33;101607.64;;;7.34;60.07
3748;BME280;1889;50.058;8.688;2024-01-30T02:38:03;101611.57;;;7.34;60.00
3748;BME280;1889;50.058;8.688;2024-01-30T02:40:32;101610.83;;;7.41;59.76
3748;BME280;1889;50.058;8.688;2024-01-30T02:43:03;101607.36;;;7.42;59.73
3748;BME280;1889;50.058;8.688;2024-01-30T02:45:32;101606.91;;;7.41;59.73
3748;BME280;1889;50.058;8.688;2024-01-30T02:48:01;101604.67;;;7.37;59.68
3748;BME280;1889;50.058;8.688;2024-01-30T02:50:31;101611.61;;;7.35;59.81
3748;BME280;1889;50.058;8.688;2024-01-30T02:53:00;101613.69;;;7.31;59.70
3748;BME280;1889;50.058;8.688;2024-01-30T02:55:29;101615.88;;;7.32;59.58
3748;BME280;1889;50.058;8.688;2024-01-30T02:57:59;101613.61;;;7.26;59.54
3748;BME280;1889;50.058;8.688;2024-01-30T03:00:28;101608.66;;;7.18;59.48
3748;BME280;1889;50.058;8.688;2024-01-30T03:02:57;101617.59;;;7.08;59.93
3748;BME280;1889;50.058;8.688;2024-01-30T03:05:27;101609.96;;;7.18;59.74
3748;BME280;1889;50.058;8.688;2024-01-30T03:07:56;101608.89;;;7.09;59.85
3748;BME280;1889;50.058;8.688;2024-01-30T03:10:26;101606.86;;;6.75;60.09
3748;BME280;1889;50.058;8.688;2024-01-30T03:12:55;101607.00;;;6.61;60.54
3748;BME280;1889;50.058;8.688;2024-01-30T03:15:24;101606.56;;;6.80;60.46
3748;BME280;1889;50.058;8.688;2024-01-30T03:17:54;101608.08;;;6.91;60.18
3748;BME280;1889;50.058;8.688;2024-01-30T03:20:23;101606.64;;;6.85;60.35
3748;BME280;1889;50.058;8.688;2024-01-30T03:22:53;101606.78;;;6.71;60.69
3748;BME280;1889;50.058;8.688;2024-01-30T03:25:23;101600.91;;;6.81;60.51
3748;BME280;1889;50.058;8.688;2024-01-30T03:27:52;101599.77;;;6.90;60.34
3748;BME280;1889;50.058;8.688;2024-01-30T03:30:21;101604.27;;;6.96;60.14
3748;BME280;1889;50.058;8.688;2024-01-30T03:32:51;101604.69;;;6.95;60.15
3748;BME280;1889;50.058;8.688;2024-01-30T03:35:20;101605.11;;;6.95;60.04
3748;BME280;1889;50.058;8.688;2024-01-30T03:37:49;101602.13;;;6.78;60.35
3748;BME280;1889;50.058;8.688;2024-01-30T03:40:19;101608.38;;;6.84;60.37
3748;BME280;1889;50.058;8.688;2024-01-30T03:42:48;101598.88;;;6.88;60.22
3748;BME280;1889;50.058;8.688;2024-01-30T03:45:17;101606.14;;;6.81;60.21
3748;BME280;1889;50.058;8.688;2024-01-30T03:47:47;101610.83;;;6.77;60.37
3748;BME280;1889;50.058;8.688;2024-01-30T03:50:17;101607.33;;;6.56;60.58
3748;BME280;1889;50.058;8.688;2024-01-30T03:52:46;101609.28;;;6.66;60.72
3748;BME280;1889;50.058;8.688;2024-01-30T03:55:16;101602.55;;;6.77;60.75
3748;BME280;1889;50.058;8.688;2024-01-30T03:57:45;101600.06;;;6.83;60.75
3748;BME280;1889;50.058;8.688;2024-01-30T04:00:15;101603.06;;;6.81;60.45
3748;BME280;1889;50.058;8.688;2024-01-30T04:02:45;101607.08;;;6.64;60.67
3748;BME280;1889;50.058;8.688;2024-01-30T04:05:14;101607.51;;;6.65;60.87
3748;BME280;1889;50.058;8.688;2024-01-30T04:07:44;101606.86;;;6.75;60.75
3748;BME280;1889;50.058;8.688;2024-01-30T04:10:13;101610.57;;;6.85;60.51
3748;BME280;1889;50.058;8.688;2024-01-30T04:12:42;101604.41;;;6.83;60.38
3748;BME280;1889;50.058;8.688;2024-01-30T04:15:12;101605.50;;;6.93;60.43
3748;BME280;1889;50.058;8.688;2024-01-30T04:17:41;101599.80;;;6.92;60.32
3748;BME280;1889;50.058;8.688;2024-01-30T04:20:15;101603.07;;;7.02;60.04
3748;BME280;1889;50.058;8.688;2024-01-30T04:22:45;101599.95;;;6.99;60.00
3748;BME280;1889;50.058;8.688;2024-01-30T04:25:15;101595.19;;;7.00;60.00
3748;BME280;1889;50.058;8.688;2024-01-30T04:27:44;101602.49;;;6.95;59.96
3748;BME280;1889;50.058;8.688;2024-01-30T04:30:13;101595.48;;;6.94;60.16
3748;BME280;1889;50.058;8.688;2024-01-30T04:32:43;101598.23;;;7.00;60.20
3748;BME280;1889;50.058;8.688;2024-01-30T04:35:14;101595.34;;;7.08;60.15
3748;BME280;1889;50.058;8.688;2024-01-30T04:37:43;101596.98;;;6.82;60.26
3748;BME280;1889;50.058;8.688;2024-01-30T04:40:13;101600.91;;;6.82;60.55
3748;BME280;1889;50.058;8.688;2024-01-30T04:42:42;101597.18;;;6.92;60.50
3748;BME280;1889;50.058;8.688;2024-01-30T04:45:12;101603.45;;;7.00;60.19
3748;BME280;1889;50.058;8.688;2024-01-30T04:47:41;101601.06;;;6.90;59.95
3748;BME280;1889;50.058;8.688;2024-01-30T04:50:11;101600.28;;;6.74;60.56
3748;BME280;1889;50.058;8.688;2024-01-30T04:52:40;101604.49;;;6.86;60.50
3748;BME280;1889;50.058;8.688;2024-01-30T04:55:09;101597.30;;;6.96;60.25
3748;BME280;1889;50.058;8.688;2024-01-30T04:57:39;101608.08;;;6.91;60.24
3748;BME280;1889;50.058;8.688;2024-01-30T05:00:09;101610.65;;;6.88;60.30
3748;BME280;1889;50.058;8.688;2024-01-30T05:02:38;101609.45;;;6.94;60.29
3748;BME280;1889;50.058;8.688;2024-01-30T05:05:08;101612.00;;;6.91;60.09
3748;BME280;1889;50.058;8.688;2024-01-30T05:07:38;101616.08;;;6.97;59.96
3748;BME280;1889;50.058;8.688;2024-01-30T05:10:08;101615.23;;;7.00;59.93
3748;BME280;1889;50.058;8.688;2024-01-30T05:12:39;101617.58;;;6.86;59.96
3748;BME280;1889;50.058;8.688;2024-01-30T05:15:09;101617.58;;;6.86;60.04
3748;BME280;1889;50.058;8.688;2024-01-30T05:17:38;101620.63;;;6.67;60.16
3748;BME280;1889;50.058;8.688;2024-01-30T05:20:08;101619.91;;;6.74;60.26
3748;BME280;1889;50.058;8.688;2024-01-30T05:22:38;101612.80;;;6.87;59.72
3748;BME280;1889;50.058;8.688;2024-01-30T05:25:09;101615.38;;;6.85;59.81
3748;BME280;1889;50.058;8.688;2024-01-30T05:27:39;101616.15;;;6.61;60.31
3748;BME280;1889;50.058;8.688;2024-01-30T05:30:08;101620.16;;;6.66;60.39
3748;BME280;1889;50.058;8.688;2024-01-30T05:32:38;101615.22;;;6.59;60.41
3748;BME280;1889;50.058;8.688;2024-01-30T05:35:07;101618.67;;;6.57;60.62
3748;BME280;1889;50.058;8.688;2024-01-30T05:37:36;101616.66;;;6.64;60.65
3748;BME280;1889;50.058;8.688;2024-01-30T05:40:08;101617.79;;;6.56;60.58
3748;BME280;1889;50.058;8.688;2024-01-30T05:42:37;101616.95;;;6.59;60.81
3748;BME280;1889;50.058;8.688;2024-01-30T05:45:07;101620.28;;;6.70;60.68
3748;BME280;1889;50.058;8.688;2024-01-30T05:47:37;101620.28;;;6.70;60.55
3748;BME280;1889;50.058;8.688;2024-01-30T05:50:07;101625.39;;;6.66;60.54
3748;BME280;1889;50.058;8.688;2024-01-30T05:52:36;101622.39;;;6.68;60.39
3748;BME280;1889;50.058;8.688;2024-01-30T05:55:06;101623.44;;;6.56;60.29
3748;BME280;1889;50.058;8.688;2024-01-30T05:57:35;101620.75;;;6.53;60.55
3748;BME280;1889;50.058;8.688;2024-01-30T06:00:06;101629.14;;;6.58;60.34
3748;BME280;1889;50.058;8.688;2024-01-30T06:02:36;101630.83;;;6.19;61.13
3748;BME280;1889;50.058;8.688;2024-01-30T06:05:06;101638.42;;;5.91;61.90
3748;BME280;1889;50.058;8.688;2024-01-30T06:07:35;101633.48;;;6.03;61.86
3748;BME280;1889;50.058;8.688;2024-01-30T06:10:05;101629.56;;;6.20;61.71
3748;BME280;1889;50.058;8.688;2024-01-30T06:12:37;101633.62;;;6.07;61.79
3748;BME280;1889;50.058;8.688;2024-01-30T06:15:07;101635.48;;;6.13;61.86
3748;BME280;1889;50.058;8.688;2024-01-30T06:17:36;101635.17;;;6.18;61.79
3748;BME280;1889;50.058;8.688;2024-01-30T06:20:06;101633.48;;;6.20;61.89
3748;BME280;1889;50.058;8.688;2024-01-30T06:22:36;101624.94;;;6.27;61.87
3748;BME280;1889;50.058;8.688;2024-01-30T06:25:05;101631.02;;;6.26;61.82
3748;BME280;1889;50.058;8.688;2024-01-30T06:27:35;101623.39;;;6.35;61.76
3748;BME280;1889;50.058;8.688;2024-01-30T06:30:05;101633.57;;;6.23;61.82
3748;BME280;1889;50.058;8.688;2024-01-30T06:32:35;101636.65;;;6.24;61.83
3748;BME280;1889;50.058;8.688;2024-01-30T06:35:06;101631.98;;;6.30;61.80
3748;BME280;1889;50.058;8.688;2024-01-30T06:37:36;101631.95;;;6.11;62.06
3748;BME280;1889;50.058;8.688;2024-01-30T06:40:06;101633.02;;;6.19;62.09
3748;BME280;1889;50.058;8.688;2024-01-30T06:42:36;101623.59;;;6.26;62.04
3748;BME280;1889;50.058;8.688;2024-01-30T06:45:06;101621.80;;;6.23;62.06
3748;BME280;1889;50.058;8.688;2024-01-30T06:47:36;101627.50;;;6.24;62.02
3748;BME280;1889;50.058;8.688;2024-01-30T06:50:06;101630.50;;;6.05;62.56
3748;BME280;1889;50.058;8.688;2024-01-30T06:52:35;101628.68;;;6.02;62.53
3748;BME280;1889;50.058;8.688;2024-01-30T06:55:05;101634.80;;;6.03;62.52
3748;BME280;1889;50.058;8.688;2024-01-30T06:57:34;101636.00;;;6.16;62.42
3748;BME280;1889;50.058;8.688;2024-01-30T07:00:04;101640.58;;;6.26;62.33
3748;BME280;1889;50.058;8.688;2024-01-30T07:02:34;101638.80;;;6.23;62.29
3748;BME280;1889;50.058;8.688;2024-01-30T07:05:03;101637.55;;;6.26;62.27
3748;BME280;1889;50.058;8.688;2024-01-30T07:07:33;101642.86;;;6.29;62.18
3748;BME280;1889;50.058;8.688;2024-01-30T07:10:02;101644.25;;;6.32;62.08
3748;BME280;1889;50.058;8.688;2024-01-30T07:12:33;101640.63;;;6.10;62.22
3748;BME280;1889;50.058;8.688;2024-01-30T07:15:03;101632.27;;;6.23;62.24
3748;BME280;1889;50.058;8.688;2024-01-30T07:17:32;101635.20;;;6.37;62.09
3748;BME280;1889;50.058;8.688;2024-01-30T07:20:01;101636.13;;;6.39;62.03
3748;BME280;1889;50.058;8.688;2024-01-30T07:22:34;101633.22;;;6.45;61.95
3748;BME280;1889;50.058;8.688;2024-01-30T07:25:04;101638.88;;;6.45;61.77
3748;BME280;1889;50.058;8.688;2024-01-30T07:27:33;101640.25;;;6.29;61.90
3748;BME280;1889;50.058;8.688;2024-01-30T07:30:03;101641.55;;;6.29;61.99
3748;BME280;1889;50.058;8.688;2024-01-30T07:32:32;101641.23;;;6.34;62.00
3748;BME280;1889;50.058;8.688;2024-01-30T07:35:02;101633.80;;;6.32;61.85
3748;BME280;1889;50.058;8.688;2024-01-30T07:37:31;101636.47;;;5.99;62.60
3748;BME280;1889;50.058;8.688;2024-01-30T07:40:01;101637.36;;;6.19;62.39
3748;BME280;1889;50.058;8.688;2024-01-30T07:42:31;101640.16;;;6.09;62.68
3748;BME280;1889;50.058;8.688;2024-01-30T07:45:01;101639.33;;;6.10;62.84
3748;BME280;1889;50.058;8.688;2024-01-30T07:47:30;101642.53;;;6.16;62.84
3748;BME280;1889;50.058;8.688;2024-01-30T07:49:59;101641.89;;;6.26;62.80
3748;BME280;1889;50.058;8.688;2024-01-30T07:52:29;101647.02;;;6.21;62.88
3748;BME280;1889;50.058;8.688;2024-01-30T07:54:58;101639.27;;;6.24;62.96
3748;BME280;1889;50.058;8.688;2024-01-30T07:57:28;101644.44;;;6.40;62.93
3748;BME280;1889;50.058;8.688;2024-01-30T07:59:57;101645.51;;;6.49;62.85
3748;BME280;1889;50.058;8.688;2024-01-30T08:02:26;101648.38;;;6.60;62.84
3748;BME280;1889;50.058;8.688;2024-01-30T08:04:56;101645.38;;;6.62;62.78
3748;BME280;1889;50.058;8.688;2024-01-30T08:07:25;101646.11;;;6.75;62.81
3748;BME280;1889;50.058;8.688;2024-01-30T08:09:56;101646.31;;;6.84;62.70
3748;BME280;1889;50.058;8.688;2024-01-30T08:12:25;101646.23;;;6.81;62.65
3748;BME280;1889;50.058;8.688;2024-01-30T08:14:54;101646.95;;;6.74;62.80
3748;BME280;1889;50.058;8.688;2024-01-30T08:17:24;101646.27;;;6.83;62.91
3748;BME280;1889;50.058;8.688;2024-01-30T08:19:53;101654.59;;;6.84;62.84
3748;BME280;1889;50.058;8.688;2024-01-30T08:22:23;101660.48;;;6.55;63.40
3748;BME280;1889;50.058;8.688;2024-01-30T08:24:52;101666.29;;;6.43;63.81
3748;BME280;1889;50.058;8.688;2024-01-30T08:27:22;101668.77;;;6.37;64.04
3748;BME280;1889;50.058;8.688;2024-01-30T08:29:51;101670.12;;;6.39;64.30
3748;BME280;1889;50.058;8.688;2024-01-30T08:32:21;101670.67;;;6.44;64.28
3748;BME280;1889;50.058;8.688;2024-01-30T08:34:50;101671.45;;;6.59;64.29
3748;BME280;1889;50.058;8.688;2024-01-30T08:37:20;101674.29;;;6.68;64.30
3748;BME280;1889;50.058;8.688;2024-01-30T08:39:49;101667.29;;;6.86;64.06
3748;BME280;1889;50.058;8.688;2024-01-30T08:42:18;101661.88;;;6.99;63.98
3748;BME280;1889;50.058;8.688;2024-01-30T08:44:50;101662.59;;;7.10;63.84
3748;BME280;1889;50.058;8.688;2024-01-30T08:47:20;101658.47;;;7.21;63.67
3748;BME280;1889;50.058;8.688;2024-01-30T08:49:50;101658.78;;;7.37;63.54
3748;BME280;1889;50.058;8.688;2024-01-30T08:52:19;101660.27;;;7.46;63.54
3748;BME280;1889;50.058;8.688;2024-01-30T08:54:48;101663.86;;;7.51;63.54
3748;BME280;1889;50.058;8.688;2024-01-30T08:57:18;101666.09;;;7.53;63.54
3748;BME280;1889;50.058;8.688;2024-01-30T08:59:47;101660.92;;;7.57;63.66
3748;BME280;1889;50.058;8.688;2024-01-30T09:02:16;101671.55;;;7.65;63.66
3748;BME280;1889;50.058;8.688;2024-01-30T09:04:46;101667.80;;;7.31;64.24
3748;BME280;1889;50.058;8.688;2024-01-30T09:07:15;101674.42;;;7.34;64.49
3748;BME280;1889;50.058;8.688;2024-01-30T09:09:45;101671.33;;;7.53;64.30
3748;BME280;1889;50.058;8.688;2024-01-30T09:12:14;101669.39;;;7.66;64.21
3748;BME280;1889;50.058;8.688;2024-01-30T09:14:43;101662.23;;;7.81;64.27
3748;BME280;1889;50.058;8.688;2024-01-30T09:17:13;101666.27;;;7.87;64.46
3748;BME280;1889;50.058;8.688;2024-01-30T09:19:42;101661.30;;;8.00;64.54
3748;BME280;1889;50.058;8.688;2024-01-30T09:22:12;101664.63;;;8.17;64.46
3748;BME280;1889;50.058;8.688;2024-01-30T09:24:41;101665.22;;;8.25;64.29
3748;BME280;1889;50.058;8.688;2024-01-30T09:27:11;101666.53;;;8.25;64.49
3748;BME280;1889;50.058;8.688;2024-01-30T09:29:40;101678.52;;;8.34;64.69
3748;BME280;1889;50.058;8.688;2024-01-30T09:32:09;101674.40;;;8.52;64.58
3748;BME280;1889;50.058;8.688;2024-01-30T09:34:39;101679.45;;;8.66;64.43
3748;BME280;1889;50.058;8.688;2024-01-30T09:37:08;101685.16;;;8.68;64.52
3748;BME280;1889;50.058;8.688;2024-01-30T09:39:37;101687.22;;;8.58;64.96
3748;BME280;1889;50.058;8.688;2024-01-30T09:42:18;101684.28;;;8.66;64.92
3748;BME280;1889;50.058;8.688;2024-01-30T09:44:50;101679.70;;;8.83;64.56
3748;BME280;1889;50.058;8.688;2024-01-30T09:47:20;101679.48;;;8.69;65.01
3748;BME280;1889;50.058;8.688;2024-01-30T09:49:51;101674.69;;;7.92;68.27
3748;BME280;1889;50.058;8.688;2024-01-30T09:52:20;101676.33;;;8.34;67.09
3748;BME280;1889;50.058;8.688;2024-01-30T09:54:51;101673.27;;;8.36;67.11
3748;BME280;1889;50.058;8.688;2024-01-30T09:57:22;101670.09;;;8.55;66.71
3748;BME280;1889;50.058;8.688;2024-01-30T09:59:51;101678.34;;;8.79;66.06
3748;BME280;1889;50.058;8.688;2024-01-30T10:02:22;101673.68;;;8.90;65.69
3748;BME280;1889;50.058;8.688;2024-01-30T10:04:52;101676.81;;;8.95;65.60
3748;BME280;1889;50.058;8.688;2024-01-30T10:07:21;101679.22;;;8.52;67.37
3748;BME280;1889;50.058;8.688;2024-01-30T10:09:52;101678.83;;;8.82;66.39
3748;BME280;1889;50.058;8.688;2024-01-30T10:12:22;101674.45;;;8.83;66.49
3748;BME280;1889;50.058;8.688;2024-01-30T10:14:51;101676.48;;;9.03;65.91
3748;BME280;1889;50.058;8.688;2024-01-30T10:17:20;101676.69;;;9.18;65.34
3748;BME280;1889;50.058;8.688;2024-01-30T10:19:49;101676.66;;;9.17;65.21
3748;BME280;1889;50.058;8.688;2024-01-30T10:22:20;101673.28;;;9.24;65.02
3748;BME280;1889;50.058;8.688;2024-01-30T10:24:49;101665.82;;;9.25;65.02
3748;BME280;1889;50.058;8.688;2024-01-30T10:27:26;101665.97;;;9.36;64.96
3748;BME280;1889;50.058;8.688;2024-01-30T10:29:56;101671.23;;;9.03;65.99
3748;BME280;1889;50.058;8.688;2024-01-30T10:32:26;101666.71;;;9.24;65.56
3748;BME280;1889;50.058;8.688;2024-01-30T10:34:56;101672.95;;;9.32;65.35
3748;BME280;1889;50.058;8.688;2024-01-30T10:37:26;101667.91;;;9.15;66.11
3748;BME280;1889;50.058;8.688;2024-01-30T10:40:00;101658.65;;;9.46;65.28
3748;BME280;1889;50.058;8.688;2024-01-30T10:42:32;101659.55;;;9.49;64.88
3748;BME280;1889;50.058;8.688;2024-01-30T10:45:08;101657.45;;;9.58;64.85
3748;BME280;1889;50.058;8.688;2024-01-30T10:47:54;101654.88;;;9.61;64.81
3748;BME280;1889;50.058;8.688;2024-01-30T10:50:27;101654.48;;;9.66;64.48
3748;BME280;1889;50.058;8.688;2024-01-30T10:52:59;101656.27;;;8.65;68.08
3748;BME280;1889;50.058;8.688;2024-01-30T10:55:29;101650.97;;;8.92;68.03
3748;BME280;1889;50.058;8.688;2024-01-30T10:57:58;101651.48;;;9.34;66.79
3748;BME280;1889;50.058;8.688;2024-01-30T11:00:29;101659.25;;;9.25;67.10
3748;BME280;1889;50.058;8.688;2024-01-30T11:03:00;101658.81;;;9.61;65.87
3748;BME280;1889;50.058;8.688;2024-01-30T11:05:30;101646.19;;;9.68;65.58
3748;BME280;1889;50.058;8.688;2024-01-30T11:08:09;101658.06;;;9.71;65.45
3748;BME280;1889;50.058;8.688;2024-01-30T11:10:30;101658.19;;;9.85;65.35
3748;BME280;1889;50.058;8.688;2024-01-30T11:12:59;101655.24;;;9.96;65.12
3748;BME280;1889;50.058;8.688;2024-01-30T11:15:30;101658.39;;;10.05;65.15
3748;BME280;1889;50.058;8.688;2024-01-30T11:18:00;101658.09;;;10.17;64.82
3748;BME280;1889;50.058;8.688;2024-01-30T11:20:30;101646.41;;;10.36;64.35
3748;BME280;1889;50.058;8.688;2024-01-30T11:23:00;101650.87;;;10.47;63.59
3748;BME280;1889;50.058;8.688;2024-01-30T11:25:32;101666.16;;;10.37;64.19
3748;BME280;1889;50.058;8.688;2024-01-30T11:28:02;101659.70;;;10.55;63.77
3748;BME280;1889;50.058;8.688;2024-01-30T11:30:32;101667.80;;;10.24;63.72
3748;BME280;1889;50.058;8.688;2024-01-30T11:33:07;101651.77;;;10.49;63.33
3748;BME280;1889;50.058;8.688;2024-01-30T11:35:39;101648.80;;;10.65;63.23
3748;BME280;1889;50.058;8.688;2024-01-30T11:38:10;101650.66;;;10.81;62.18
3748;BME280;1889;50.058;8.688;2024-01-30T11:40:40;101643.09;;;10.61;62.53
3748;BME280;1889;50.058;8.688;2024-01-30T11:43:10;101631.17;;;10.52;62.61
3748;BME280;1889;50.058;8.688;2024-01-30T11:45:40;101638.06;;;10.35;63.20
3748;BME280;1889;50.058;8.688;2024-01-30T11:48:11;101641.79;;;10.65;63.24
3748;BME280;1889;50.058;8.688;2024-01-30T11:50:41;101633.91;;;10.15;63.93
3748;BME280;1889;50.058;8.688;2024-01-30T11:53:10;101627.06;;;10.29;64.36
3748;BME280;1889;50.058;8.688;2024-01-30T11:55:40;101622.10;;;10.75;63.36
3748;BME280;1889;50.058;8.688;2024-01-30T11:58:09;101619.52;;;10.84;62.76
3748;BME280;1889;50.058;8.688;2024-01-30T12:00:38;101618.72;;;10.98;62.20
3748;BME280;1889;50.058;8.688;2024-01-30T12:03:08;101602.77;;;10.73;62.59
3748;BME280;1889;50.058;8.688;2024-01-30T12:05:39;101601.56;;;10.95;62.68
3748;BME280;1889;50.058;8.688;2024-01-30T12:08:15;101589.57;;;10.62;62.93
3748;BME280;1889;50.058;8.688;2024-01-30T12:10:45;101585.73;;;10.88;62.90
3748;BME280;1889;50.058;8.688;2024-01-30T12:13:14;101595.50;;;11.08;62.32
3748;BME280;1889;50.058;8.688;2024-01-30T12:15:44;101595.99;;;11.25;62.18
3748;BME280;1889;50.058;8.688;2024-01-30T12:18:13;101603.04;;;11.32;61.95
3748;BME280;1889;50.058;8.688;2024-01-30T12:20:43;101596.02;;;11.37;61.39
3748;BME280;1889;50.058;8.688;2024-01-30T12:23:12;101594.76;;;11.57;61.04
3748;BME280;1889;50.058;8.688;2024-01-30T12:25:41;101595.19;;;11.48;60.46
3748;BME280;1889;50.058;8.688;2024-01-30T12:28:11;101592.55;;;11.48;60.98
3748;BME280;1889;50.058;8.688;2024-01-30T12:30:41;101596.05;;;11.47;60.92
3748;BME280;1889;50.058;8.688;2024-01-30T12:33:18;101602.66;;;11.55;60.56
3748;BME280;1889;50.058;8.688;2024-01-30T12:35:48;101603.50;;;11.43;60.20
3748;BME280;1889;50.058;8.688;2024-01-30T12:38:18;101598.67;;;11.40;61.12
3748;BME280;1889;50.058;8.688;2024-01-30T12:40:47;101600.86;;;11.34;61.46
3748;BME280;1889;50.058;8.688;2024-01-30T12:43:17;101588.04;;;11.09;62.09
3748;BME280;1889;50.058;8.688;2024-01-30T12:45:47;101592.73;;;10.83;62.76
3748;BME280;1889;50.058;8.688;2024-01-30T12:48:16;101593.30;;;11.13;62.09
3748;BME280;1889;50.058;8.688;2024-01-30T12:50:46;101600.45;;;11.42;61.54
3748;BME280;1889;50.058;8.688;2024-01-30T12:53:15;101595.62;;;11.48;60.77
3748;BME280;1889;50.058;8.688;2024-01-30T12:55:44;101600.48;;;11.59;60.83
3748;BME280;1889;50.058;8.688;2024-01-30T12:58:14;101596.09;;;11.72;60.61
3748;BME280;1889;50.058;8.688;2024-01-30T13:00:43;101595.64;;;11.51;60.56
3748;BME280;1889;50.058;8.688;2024-01-30T13:03:13;101590.83;;;11.66;60.46
3748;BME280;1889;50.058;8.688;2024-01-30T13:05:43;101577.16;;;11.42;61.56
3748;BME280;1889;50.058;8.688;2024-01-30T13:08:12;101580.70;;;11.70;60.46
3748;BME280;1889;50.058;8.688;2024-01-30T13:10:42;101579.45;;;11.90;59.93
3748;BME280;1889;50.058;8.688;2024-01-30T13:13:11;101577.25;;;11.83;59.88
3748;BME280;1889;50.058;8.688;2024-01-30T13:15:40;101576.35;;;12.01;59.83
3748;BME280;1889;50.058;8.688;2024-01-30T13:18:09;101566.25;;;11.97;59.66
3748;BME280;1889;50.058;8.688;2024-01-30T13:20:39;101565.37;;;11.95;59.87
3748;BME280;1889;50.058;8.688;2024-01-30T13:23:08;101564.94;;;12.06;59.73
3748;BME280;1889;50.058;8.688;2024-01-30T13:25:37;101557.44;;;12.21;59.72
3748;BME280;1889;50.058;8.688;2024-01-30T13:28:07;101552.16;;;12.21;59.81
3748;BME280;1889;50.058;8.688;2024-01-30T13:30:36;101556.11;;;12.27;59.35
3748;BME280;1889;50.058;8.688;2024-01-30T13:33:05;101552.58;;;12.27;59.56
3748;BME280;1889;50.058;8.688;2024-01-30T13:35:35;101557.42;;;12.39;59.34